Time;durP1;ratioP1;P1;durP2;ratioP2;P2;SDS_P1;SDS_P2;PMS_P1;PMS_P2;Temp;Humidity;BMP_temperature;BMP_pressure;BME280_temperature;BME280_humidity;BME280_pressure;Samples;Min_cycle;Max_cycle;Signal;HPM_P1;HPM_P2
2021/11/21 00:01:34;;;;;;;2.28;2.08;;;19.00;63.70;;;;;;5036073;28;20398;-30
2021/11/21 00:03:59;;;;;;;2.00;1.90;;;19.10;63.80;;;;;;5037135;28;20029;-26
2021/11/21 00:06:25;;;;;;;2.20;2.10;;;19.00;63.70;;;;;;5037621;28;20091;-26
2021/11/21 00:08:52;;;;;;;2.83;2.63;;;19.00;63.70;;;;;;5051359;28;20033;-31
2021/11/21 00:11:18;;;;;;;2.22;2.13;;;19.00;63.80;;;;;;5042102;28;20022;-25
2021/11/21 00:13:44;;;;;;;2.33;2.22;;;19.00;63.70;;;;;;5047038;28;20040;-24
2021/11/21 00:16:09;;;;;;;2.50;2.40;;;19.00;63.80;;;;;;5057941;28;20013;-29
2021/11/21 00:18:35;;;;;;;2.75;2.55;;;18.90;63.60;;;;;;5057538;28;20021;-28
2021/11/21 00:21:01;;;;;;;2.53;2.42;;;18.80;64.00;;;;;;5037970;28;20045;-27
2021/11/21 00:23:26;;;;;;;2.70;2.50;;;18.80;63.80;;;;;;5045751;28;20087;-26
2021/11/21 00:25:52;;;;;;;2.47;2.28;;;18.80;63.90;;;;;;5057174;28;20069;-29
2021/11/21 00:28:18;;;;;;;2.78;2.58;;;18.80;64.70;;;;;;5040912;28;20052;-23
2021/11/21 00:30:43;;;;;;;2.40;2.30;;;18.80;63.70;;;;;;5044435;28;20050;-26
2021/11/21 00:33:09;;;;;;;2.10;2.00;;;18.90;63.60;;;;;;5049407;28;20093;-25
2021/11/21 00:35:34;;;;;;;2.53;2.35;;;18.90;63.50;;;;;;5045493;28;20104;-28
2021/11/21 00:38:00;;;;;;;2.50;2.30;;;18.90;63.40;;;;;;5022601;28;20040;-24
2021/11/21 00:40:26;;;;;;;2.75;2.55;;;18.90;63.40;;;;;;5017556;28;20029;-24
2021/11/21 00:42:53;;;;;;;2.45;2.35;;;18.90;63.30;;;;;;5026703;28;20394;-20
2021/11/21 00:45:19;;;;;;;3.00;2.20;;;18.80;63.30;;;;;;5037754;28;20026;-21
2021/11/21 00:47:44;;;;;;;2.13;2.03;;;18.80;63.40;;;;;;5046731;28;20047;-21
2021/11/21 00:50:12;;;;;;;2.03;1.92;;;18.80;63.30;;;;;;5024102;28;20075;-25
2021/11/21 00:52:38;;;;;;;2.22;2.13;;;18.80;63.30;;;;;;5029302;28;20030;-26
2021/11/21 00:55:10;;;;;;;2.35;2.20;;;18.80;63.40;;;;;;5034625;28;20018;-21
2021/11/21 00:57:37;;;;;;;2.33;2.17;;;18.80;63.40;;;;;;5036055;28;20437;-30
2021/11/21 01:00:03;;;;;;;2.30;2.20;;;18.80;63.40;;;;;;5034825;28;20014;-20
2021/11/21 01:02:29;;;;;;;2.10;2.00;;;18.70;63.50;;;;;;5036178;28;20034;-28
2021/11/21 01:04:54;;;;;;;2.65;2.55;;;18.70;63.60;;;;;;5036368;28;20060;-26
2021/11/21 01:07:21;;;;;;;2.38;2.28;;;18.70;63.60;;;;;;5030173;28;20064;-26
2021/11/21 01:09:47;;;;;;;2.13;2.03;;;18.70;63.50;;;;;;5046454;28;20067;-26
2021/11/21 01:12:12;;;;;;;2.50;2.40;;;18.60;63.70;;;;;;5030252;28;20030;-24
2021/11/21 01:14:38;;;;;;;2.15;2.05;;;18.60;63.70;;;;;;5017179;28;20030;-27
2021/11/21 01:17:05;;;;;;;2.25;2.15;;;18.60;63.70;;;;;;5016658;28;20026;-26
2021/11/21 01:19:31;;;;;;;2.10;2.00;;;18.60;63.60;;;;;;5028501;28;20112;-26
2021/11/21 01:21:56;;;;;;;2.67;2.47;;;18.50;64.00;;;;;;5034418;28;20056;-25
2021/11/21 01:24:22;;;;;;;2.20;2.10;;;18.50;63.90;;;;;;5024106;28;20677;-21
2021/11/21 01:26:47;;;;;;;2.17;2.05;;;18.50;64.00;;;;;;5024544;28;20030;-23
2021/11/21 01:29:13;;;;;;;2.75;2.58;;;18.60;63.80;;;;;;5016081;28;20033;-23
2021/11/21 01:31:39;;;;;;;2.40;2.30;;;18.60;63.70;;;;;;5019340;28;20025;-23
2021/11/21 01:34:04;;;;;;;2.22;2.13;;;18.60;63.70;;;;;;5033144;28;20035;-26
2021/11/21 01:36:30;;;;;;;2.60;2.42;;;18.60;63.80;;;;;;5031441;28;20025;-21
2021/11/21 01:38:56;;;;;;;2.20;2.10;;;18.50;63.60;;;;;;5038653;28;20284;-22
2021/11/21 01:41:21;;;;;;;2.10;2.00;;;18.60;63.70;;;;;;5018608;28;20026;-24
2021/11/21 01:43:47;;;;;;;2.85;2.63;;;18.50;63.60;;;;;;5034904;28;20033;-26
2021/11/21 01:46:12;;;;;;;4.95;2.20;;;18.60;63.60;;;;;;5053867;28;20473;-21
2021/11/21 01:48:38;;;;;;;2.13;2.03;;;18.60;63.50;;;;;;5056159;28;20025;-23
2021/11/21 01:51:06;;;;;;;2.35;2.25;;;18.50;63.70;;;;;;5024182;28;20079;-21
2021/11/21 01:53:31;;;;;;;1.90;1.80;;;18.50;63.60;;;;;;5016405;28;20494;-21
2021/11/21 01:55:57;;;;;;;1.95;1.85;;;18.60;63.50;;;;;;5020331;28;20026;-24
2021/11/21 01:58:23;;;;;;;2.10;2.00;;;18.60;63.20;;;;;;5023803;28;20022;-21
2021/11/21 02:00:48;;;;;;;2.20;2.10;;;18.70;63.10;;;;;;5027810;28;20030;-21
2021/11/21 02:03:14;;;;;;;2.15;2.05;;;18.60;63.00;;;;;;5039049;28;20021;-26
2021/11/21 02:05:40;;;;;;;2.30;2.10;;;18.60;63.00;;;;;;5035630;28;20029;-25
2021/11/21 02:08:06;;;;;;;2.03;1.92;;;18.70;63.00;;;;;;5024303;28;20033;-25
2021/11/21 02:10:34;;;;;;;1.92;1.83;;;18.60;63.00;;;;;;5016070;28;20021;-27
2021/11/21 02:13:00;;;;;;;2.25;2.15;;;18.60;63.00;;;;;;5015742;28;20065;-24
2021/11/21 02:15:25;;;;;;;2.10;2.00;;;18.70;62.80;;;;;;5030343;28;20051;-22
2021/11/21 02:17:51;;;;;;;2.10;2.00;;;18.60;62.80;;;;;;5056547;28;20438;-26
2021/11/21 02:20:38;;;;;;;2.08;1.98;;;18.60;62.70;;;;;;5039699;28;20510;-25
2021/11/21 02:23:04;;;;;;;1.75;1.65;;;18.70;62.70;;;;;;5025511;28;20045;-21
2021/11/21 02:25:30;;;;;;;1.83;1.73;;;18.60;62.70;;;;;;5032791;28;20099;-21
2021/11/21 02:27:56;;;;;;;1.90;1.80;;;18.60;62.70;;;;;;5035552;28;20045;-26
2021/11/21 02:30:21;;;;;;;2.00;1.90;;;18.60;62.70;;;;;;5036394;28;20040;-24
2021/11/21 02:32:48;;;;;;;2.00;1.85;;;18.60;62.70;;;;;;5034007;28;20057;-22
2021/11/21 02:35:14;;;;;;;1.88;1.77;;;18.60;62.70;;;;;;5041082;28;20025;-22
2021/11/21 02:37:40;;;;;;;2.05;1.95;;;18.60;62.70;;;;;;5033426;28;20021;-24
2021/11/21 02:40:07;;;;;;;1.90;1.80;;;18.60;62.70;;;;;;5030574;28;20036;-21
2021/11/21 02:42:35;;;;;;;1.80;1.70;;;18.60;62.70;;;;;;5038595;28;20030;-21
2021/11/21 02:45:05;;;;;;;1.90;1.80;;;18.60;62.60;;;;;;5030512;28;20037;-23
2021/11/21 02:47:34;;;;;;;2.03;1.92;;;18.60;62.70;;;;;;5027740;28;20065;-28
2021/11/21 02:50:14;;;;;;;1.65;1.55;;;18.60;62.70;;;;;;5038104;28;20033;-26
2021/11/21 02:52:39;;;;;;;1.88;1.77;;;18.60;62.60;;;;;;5026479;28;20114;-27
2021/11/21 02:55:05;;;;;;;1.88;1.77;;;18.60;62.50;;;;;;5027615;28;20026;-21
2021/11/21 02:57:31;;;;;;;2.00;1.90;;;18.60;62.60;;;;;;5037039;28;20025;-27
2021/11/21 02:59:56;;;;;;;1.70;1.60;;;18.60;62.60;;;;;;5059578;28;20043;-24
2021/11/21 03:02:22;;;;;;;2.00;1.90;;;18.60;62.60;;;;;;5038092;28;20060;-26
2021/11/21 03:04:51;;;;;;;1.70;1.60;;;18.60;62.60;;;;;;5034399;28;20056;-21
2021/11/21 03:07:17;;;;;;;2.38;2.00;;;18.60;62.60;;;;;;5019937;28;20363;-21
2021/11/21 03:09:42;;;;;;;1.90;1.80;;;18.50;62.50;;;;;;5031811;28;20155;-26
2021/11/21 03:12:08;;;;;;;2.15;2.05;;;18.60;62.60;;;;;;5034982;28;20386;-25
2021/11/21 03:14:34;;;;;;;1.88;1.77;;;18.60;62.50;;;;;;5046749;28;20038;-27
2021/11/21 03:17:00;;;;;;;1.90;1.80;;;18.50;62.60;;;;;;5054335;28;20047;-24
2021/11/21 03:19:27;;;;;;;2.00;1.90;;;18.50;62.50;;;;;;5039545;28;20029;-27
2021/11/21 03:21:52;;;;;;;1.55;1.52;;;18.50;62.60;;;;;;5039854;28;20025;-28
2021/11/21 03:24:18;;;;;;;1.80;1.70;;;18.50;62.50;;;;;;5043247;28;20064;-25
2021/11/21 03:26:44;;;;;;;1.70;1.60;;;18.50;62.50;;;;;;5037206;28;20036;-22
2021/11/21 03:29:09;;;;;;;2.00;1.90;;;18.50;62.50;;;;;;5045278;28;20033;-22
2021/11/21 03:31:35;;;;;;;1.80;1.70;;;18.50;62.50;;;;;;5032463;28;20026;-24
2021/11/21 03:34:01;;;;;;;1.85;1.75;;;18.50;62.50;;;;;;5038993;28;20506;-21
2021/11/21 03:36:28;;;;;;;1.70;1.70;;;18.50;63.30;;;;;;5037529;28;20021;-23
2021/11/21 03:38:53;;;;;;;1.70;1.60;;;18.50;62.40;;;;;;5039410;28;20497;-26
2021/11/21 03:41:19;;;;;;;1.80;1.70;;;18.50;63.20;;;;;;5054652;28;20100;-20
2021/11/21 03:43:44;;;;;;;1.70;1.60;;;18.50;62.40;;;;;;5038397;28;20037;-23
2021/11/21 03:46:10;;;;;;;1.73;1.63;;;18.50;62.30;;;;;;5035770;28;20046;-24
2021/11/21 03:48:35;;;;;;;1.80;1.70;;;18.50;62.30;;;;;;5031934;28;20044;-25
2021/11/21 03:51:01;;;;;;;1.92;1.83;;;18.50;62.40;;;;;;5032033;28;20109;-23
2021/11/21 03:53:27;;;;;;;1.60;1.60;;;18.50;62.40;;;;;;5021303;28;20040;-23
2021/11/21 03:55:52;;;;;;;1.70;1.60;;;18.50;62.40;;;;;;5045225;28;20026;-23
2021/11/21 03:58:18;;;;;;;1.83;1.73;;;18.50;62.30;;;;;;5025113;28;20051;-21
2021/11/21 04:00:46;;;;;;;1.80;1.70;;;18.50;62.30;;;;;;5021772;28;20033;-25
2021/11/21 04:03:15;;;;;;;2.03;1.92;;;18.50;62.30;;;;;;5037864;28;20037;-26
2021/11/21 04:05:41;;;;;;;1.92;1.83;;;18.50;62.20;;;;;;5038516;28;20505;-26
2021/11/21 04:08:07;;;;;;;1.90;1.80;;;18.50;62.40;;;;;;5037147;28;20033;-22
2021/11/21 04:10:33;;;;;;;1.77;1.67;;;18.50;62.40;;;;;;5028675;28;20401;-21
2021/11/21 04:13:00;;;;;;;1.67;1.58;;;18.40;62.30;;;;;;5033411;28;20621;-24
2021/11/21 04:15:26;;;;;;;1.38;1.30;;;18.40;62.30;;;;;;5057873;28;20108;-24
2021/11/21 04:17:51;;;;;;;1.60;1.50;;;18.50;62.20;;;;;;5058270;28;20061;-27
2021/11/21 04:20:17;;;;;;;1.50;1.40;;;18.40;62.20;;;;;;5057803;28;20025;-27
2021/11/21 04:22:42;;;;;;;1.52;1.52;;;18.40;62.20;;;;;;5041808;28;20056;-21
2021/11/21 04:25:09;;;;;;;1.67;1.60;;;18.40;62.10;;;;;;5026154;28;20437;-24
2021/11/21 04:27:34;;;;;;;1.75;1.65;;;18.40;62.20;;;;;;5055442;28;20036;-26
2021/11/21 04:30:00;;;;;;;1.50;1.40;;;18.40;62.30;;;;;;5057958;28;20478;-24
2021/11/21 04:32:26;;;;;;;1.83;1.73;;;18.40;62.30;;;;;;5040966;28;20062;-25
2021/11/21 04:34:52;;;;;;;1.65;1.55;;;18.40;62.20;;;;;;5022943;28;20386;-25
2021/11/21 04:37:17;;;;;;;1.40;1.40;;;18.40;62.20;;;;;;5037416;28;20112;-25
2021/11/21 04:39:43;;;;;;;1.60;1.50;;;18.40;62.20;;;;;;5031418;28;20403;-23
2021/11/21 04:42:09;;;;;;;1.80;1.70;;;18.40;62.20;;;;;;5034666;28;20018;-28
2021/11/21 04:44:34;;;;;;;1.55;1.52;;;18.40;62.30;;;;;;5037703;28;20068;-26
2021/11/21 04:47:00;;;;;;;1.50;1.40;;;18.40;62.30;;;;;;5037345;28;20054;-25
2021/11/21 04:49:25;;;;;;;1.73;1.63;;;18.40;62.20;;;;;;5037750;28;20096;-23
2021/11/21 04:51:51;;;;;;;1.48;1.48;;;18.40;62.20;;;;;;5037265;28;20030;-24
2021/11/21 04:54:20;;;;;;;1.65;1.55;;;18.40;62.20;;;;;;5027872;28;20022;-25
2021/11/21 04:56:46;;;;;;;1.60;1.50;;;18.40;62.20;;;;;;5032747;28;20018;-27
2021/11/21 04:59:15;;;;;;;1.33;1.27;;;18.40;62.20;;;;;;5025911;28;20022;-22
2021/11/21 05:01:41;;;;;;;1.30;1.30;;;18.40;62.20;;;;;;5037621;28;20025;-22
2021/11/21 05:04:06;;;;;;;1.60;1.50;;;18.40;62.30;;;;;;5035711;28;20026;-29
2021/11/21 05:06:32;;;;;;;1.38;1.27;;;18.30;62.20;;;;;;5034414;28;20108;-24
2021/11/21 05:08:58;;;;;;;1.50;1.40;;;18.40;62.30;;;;;;5043890;28;20056;-25
2021/11/21 05:11:23;;;;;;;1.70;1.60;;;18.40;62.30;;;;;;5036646;28;20057;-26
2021/11/21 05:13:49;;;;;;;1.48;1.40;;;18.40;62.20;;;;;;5056760;28;20021;-21
2021/11/21 05:16:15;;;;;;;1.60;1.50;;;18.30;62.10;;;;;;5047038;28;20026;-27
2021/11/21 05:18:40;;;;;;;1.60;1.50;;;18.40;62.00;;;;;;5027618;28;20496;-26
2021/11/21 05:21:06;;;;;;;1.73;1.63;;;18.30;62.20;;;;;;5017519;28;20064;-23
2021/11/21 05:23:31;;;;;;;1.40;1.40;;;18.30;62.20;;;;;;5017436;28;20022;-26
2021/11/21 05:25:57;;;;;;;1.58;1.55;;;18.30;62.20;;;;;;5032896;28;20075;-30
2021/11/21 05:28:23;;;;;;;1.52;1.42;;;18.30;62.20;;;;;;5027389;28;20096;-27
2021/11/21 05:30:50;;;;;;;1.35;1.35;;;18.30;62.20;;;;;;5021581;28;20030;-28
2021/11/21 05:33:15;;;;;;;1.50;1.45;;;18.30;62.20;;;;;;5034949;28;20113;-20
2021/11/21 05:35:41;;;;;;;1.30;1.30;;;18.30;62.20;;;;;;5031625;28;20104;-21
2021/11/21 05:38:07;;;;;;;1.50;1.40;;;18.30;62.20;;;;;;5039389;28;20035;-21
2021/11/21 05:40:32;;;;;;;1.33;1.23;;;18.30;62.10;;;;;;5056466;28;20029;-21
2021/11/21 05:42:58;;;;;;;1.38;1.30;;;18.30;62.10;;;;;;5037587;28;20025;-26
2021/11/21 05:45:23;;;;;;;1.25;1.25;;;18.30;62.20;;;;;;5036157;28;21117;-22
2021/11/21 05:47:49;;;;;;;1.20;1.20;;;18.30;62.30;;;;;;5036859;28;20088;-22
2021/11/21 05:50:16;;;;;;;1.70;1.60;;;18.30;62.30;;;;;;5032910;28;20026;-23
2021/11/21 05:52:45;;;;;;;1.70;1.60;;;18.30;63.10;;;;;;5020872;28;20071;-26
2021/11/21 05:55:11;;;;;;;1.58;1.48;;;18.30;62.20;;;;;;5042713;28;20034;-23
2021/11/21 05:57:37;;;;;;;1.20;1.20;;;18.30;63.00;;;;;;5036737;28;20554;-22
2021/11/21 06:00:04;;;;;;;1.50;1.40;;;18.30;62.10;;;;;;5036126;28;20025;-24
2021/11/21 06:02:29;;;;;;;1.42;1.35;;;18.20;62.20;;;;;;5025826;28;20030;-24
2021/11/21 06:04:55;;;;;;;1.55;1.45;;;18.20;62.20;;;;;;5054613;28;20170;-21
2021/11/21 06:07:21;;;;;;;1.30;1.30;;;18.20;62.30;;;;;;5040826;28;20647;-22
2021/11/21 06:09:46;;;;;;;1.15;1.15;;;18.20;62.30;;;;;;5032243;28;20170;-24
2021/11/21 06:12:12;;;;;;;1.20;1.20;;;18.20;62.20;;;;;;5018566;28;20026;-24
2021/11/21 06:14:37;;;;;;;1.10;1.10;;;18.20;62.30;;;;;;5021762;28;20034;-21
2021/11/21 06:17:04;;;;;;;1.15;1.15;;;18.20;62.30;;;;;;5037439;28;20017;-24
2021/11/21 06:19:30;;;;;;;1.20;1.20;;;18.20;62.10;;;;;;5023463;28;20367;-20
2021/11/21 06:21:55;;;;;;;1.50;1.40;;;18.20;62.30;;;;;;5022758;28;20030;-24
2021/11/21 06:24:21;;;;;;;1.30;1.30;;;18.20;62.20;;;;;;5037169;28;20399;-24
2021/11/21 06:26:47;;;;;;;1.35;1.30;;;18.20;62.20;;;;;;5026786;28;20026;-24
2021/11/21 06:29:12;;;;;;;1.05;1.05;;;18.20;62.20;;;;;;5027166;28;20021;-21
2021/11/21 06:31:38;;;;;;;1.10;1.10;;;18.20;62.30;;;;;;5030268;28;20022;-24
2021/11/21 06:34:04;;;;;;;1.17;1.17;;;18.20;62.30;;;;;;5045539;28;20474;-27
2021/11/21 06:36:30;;;;;;;1.15;1.15;;;18.20;62.30;;;;;;5041229;28;20024;-25
2021/11/21 06:38:55;;;;;;;0.93;0.93;;;18.20;62.30;;;;;;5055761;28;20462;-24
2021/11/21 06:41:21;;;;;;;1.13;1.13;;;18.20;62.30;;;;;;5026191;28;20421;-29
2021/11/21 06:43:46;;;;;;;1.05;1.05;;;18.20;62.30;;;;;;5034457;28;20060;-25
2021/11/21 06:46:14;;;;;;;1.05;1.05;;;18.20;62.30;;;;;;5044030;28;20098;-23
2021/11/21 06:48:40;;;;;;;1.05;1.05;;;18.20;62.30;;;;;;5020470;28;20079;-22
2021/11/21 06:51:07;;;;;;;1.05;1.05;;;18.20;62.30;;;;;;5029561;28;20056;-21
2021/11/21 06:53:32;;;;;;;1.60;1.50;;;18.10;62.30;;;;;;5039996;28;20048;-24
2021/11/21 06:55:58;;;;;;;0.95;0.95;;;18.20;62.30;;;;;;5039912;28;20022;-24
2021/11/21 06:58:25;;;;;;;1.17;1.17;;;18.20;62.30;;;;;;5025341;28;20107;-24
2021/11/21 07:00:51;;;;;;;1.25;1.25;;;18.10;62.30;;;;;;5036985;28;20022;-28
2021/11/21 07:03:17;;;;;;;1.10;1.10;;;18.10;62.30;;;;;;5041146;28;20036;-22
2021/11/21 07:05:42;;;;;;;1.20;1.20;;;18.10;62.40;;;;;;5040853;28;20085;-26
2021/11/21 07:08:08;;;;;;;1.13;1.13;;;18.20;62.30;;;;;;5035891;28;20032;-26
2021/11/21 07:10:34;;;;;;;1.10;1.10;;;18.20;62.30;;;;;;5036796;28;20032;-24
2021/11/21 07:13:02;;;;;;;1.95;1.30;;;18.20;62.30;;;;;;5035370;28;20057;-28
2021/11/21 07:15:27;;;;;;;0.98;0.98;;;18.10;62.20;;;;;;5037516;28;20127;-26
2021/11/21 07:17:54;;;;;;;1.15;1.15;;;18.10;62.30;;;;;;5040211;28;20029;-24
2021/11/21 07:20:19;;;;;;;0.98;0.98;;;18.20;62.30;;;;;;5039323;28;20110;-22
2021/11/21 07:22:46;;;;;;;1.08;1.08;;;18.10;62.20;;;;;;5034517;28;20032;-22
2021/11/21 07:25:13;;;;;;;1.13;1.13;;;18.10;62.30;;;;;;5047645;28;20034;-24
2021/11/21 07:27:41;;;;;;;0.70;0.70;;;18.10;62.30;;;;;;5039320;28;20108;-23
2021/11/21 07:30:07;;;;;;;1.00;1.00;;;18.10;62.30;;;;;;5038494;28;20470;-23
2021/11/21 07:32:32;;;;;;;1.02;1.02;;;18.10;62.30;;;;;;5039053;28;20034;-22
2021/11/21 07:34:58;;;;;;;1.00;1.00;;;18.10;62.30;;;;;;5037492;28;20037;-24
2021/11/21 07:37:23;;;;;;;1.17;1.17;;;18.10;62.30;;;;;;5035535;28;20052;-23
2021/11/21 07:39:49;;;;;;;1.00;1.00;;;18.10;62.30;;;;;;5032508;28;20067;-23
2021/11/21 07:42:14;;;;;;;1.00;1.00;;;18.10;62.30;;;;;;5032232;28;20026;-24
2021/11/21 07:44:40;;;;;;;1.05;1.05;;;18.10;62.30;;;;;;5036665;28;20053;-24
2021/11/21 07:47:06;;;;;;;0.95;0.95;;;18.10;62.20;;;;;;5021878;28;20514;-23
2021/11/21 07:49:31;;;;;;;0.80;0.80;;;18.10;62.30;;;;;;5018771;28;20030;-23
2021/11/21 07:51:57;;;;;;;1.05;1.05;;;18.10;62.30;;;;;;5024251;28;20501;-28
2021/11/21 07:54:22;;;;;;;0.93;0.93;;;18.10;62.40;;;;;;5038643;28;20029;-21
2021/11/21 07:56:48;;;;;;;0.90;0.90;;;18.10;62.40;;;;;;5036437;28;20494;-27
2021/11/21 07:59:13;;;;;;;0.90;0.90;;;18.10;62.50;;;;;;5049012;28;20037;-26
2021/11/21 08:01:39;;;;;;;0.90;0.90;;;18.00;62.60;;;;;;5018342;28;20049;-22
2021/11/21 08:04:05;;;;;;;0.90;0.90;;;18.10;62.50;;;;;;5021000;28;20519;-30
2021/11/21 08:06:30;;;;;;;1.95;1.33;;;18.10;62.50;;;;;;5019220;28;20041;-24
2021/11/21 08:08:56;;;;;;;0.90;0.90;;;18.10;62.40;;;;;;5020406;28;20042;-30
2021/11/21 08:11:22;;;;;;;0.98;0.98;;;18.10;62.30;;;;;;5027755;28;20124;-21
2021/11/21 08:13:47;;;;;;;1.02;1.02;;;18.10;62.40;;;;;;5036340;28;22852;-24
2021/11/21 08:16:13;;;;;;;1.85;1.10;;;18.10;62.40;;;;;;4685621;28;10000041;-27
2021/11/21 08:18:39;;;;;;;0.90;0.90;;;18.10;62.50;;;;;;5021549;28;20049;-20
2021/11/21 08:21:04;;;;;;;0.82;0.82;;;18.10;62.50;;;;;;5016235;28;20050;-21
2021/11/21 08:23:30;;;;;;;1.15;0.85;;;18.10;62.80;;;;;;5022124;28;20056;-22
2021/11/21 08:25:56;;;;;;;2.53;1.08;;;18.10;62.80;;;;;;5029113;28;20049;-25
2021/11/21 08:28:21;;;;;;;2.15;0.90;;;18.10;62.90;;;;;;5029435;28;20041;-27
2021/11/21 08:30:47;;;;;;;0.95;0.95;;;18.10;63.00;;;;;;5005873;28;20065;-22
2021/11/21 08:33:12;;;;;;;1.00;0.90;;;18.10;63.00;;;;;;5019539;28;20049;-24
2021/11/21 08:35:38;;;;;;;1.75;1.25;;;18.00;63.10;;;;;;5034005;28;20049;-22
2021/11/21 08:38:04;;;;;;;2.20;1.20;;;18.10;63.10;;;;;;5033126;28;20056;-26
2021/11/21 08:40:30;;;;;;;1.23;1.02;;;18.10;63.00;;;;;;5021928;28;20851;-26
2021/11/21 08:42:56;;;;;;;1.30;1.20;;;18.10;63.80;;;;;;5031435;28;20049;-29
2021/11/21 08:45:22;;;;;;;1.17;1.17;;;18.10;63.00;;;;;;5018054;28;20053;-32
2021/11/21 08:47:48;;;;;;;1.08;0.88;;;18.10;63.10;;;;;;5033858;28;20143;-25
2021/11/21 08:50:13;;;;;;;1.38;1.00;;;18.10;63.10;;;;;;5035928;28;20045;-24
2021/11/21 08:52:39;;;;;;;0.93;0.93;;;18.20;63.80;;;;;;5027012;28;20041;-24
2021/11/21 08:55:05;;;;;;;1.65;0.98;;;18.20;63.40;;;;;;5028034;28;20109;-26
2021/11/21 08:57:31;;;;;;;1.08;0.95;;;18.20;63.10;;;;;;5046751;28;20048;-21
2021/11/21 08:59:57;;;;;;;4.13;1.27;;;18.20;63.20;;;;;;5041834;28;20470;-24
2021/11/21 09:02:22;;;;;;;0.85;0.85;;;18.20;63.50;;;;;;5033548;28;20042;-27
2021/11/21 09:04:48;;;;;;;1.00;1.00;;;18.20;64.30;;;;;;5034360;28;20129;-27
2021/11/21 09:07:13;;;;;;;1.15;1.13;;;18.20;64.20;;;;;;5033951;28;20033;-30
2021/11/21 09:09:39;;;;;;;5.97;1.80;;;18.30;65.10;;;;;;5034676;28;20045;-26
2021/11/21 09:12:05;;;;;;;1.20;1.20;;;18.30;65.90;;;;;;5034987;28;20037;-25
2021/11/21 09:14:31;;;;;;;2.38;1.20;;;18.20;65.40;;;;;;5031206;28;20041;-24
2021/11/21 09:16:56;;;;;;;1.15;1.08;;;18.20;65.30;;;;;;5032266;28;20796;-24
2021/11/21 09:19:22;;;;;;;1.05;1.00;;;18.30;65.90;;;;;;5031752;28;20037;-25
2021/11/21 09:21:48;;;;;;;1.10;1.00;;;18.30;65.50;;;;;;5018567;28;20041;-27
2021/11/21 09:24:13;;;;;;;0.95;0.95;;;18.30;65.50;;;;;;5039864;28;20045;-24
2021/11/21 09:26:39;;;;;;;0.98;0.93;;;18.40;67.10;;;;;;5036747;28;20049;-24
2021/11/21 09:29:05;;;;;;;1.80;1.10;;;18.50;66.10;;;;;;5045900;28;20052;-27
2021/11/21 09:31:30;;;;;;;4.18;1.27;;;18.40;68.30;;;;;;5037430;28;20041;-21
2021/11/21 09:33:56;;;;;;;2.85;1.33;;;18.40;68.70;;;;;;5035291;28;20045;-25
2021/11/21 09:36:22;;;;;;;1.90;1.08;;;18.40;68.50;;;;;;5029567;28;20057;-24
2021/11/21 09:38:48;;;;;;;2.90;1.10;;;18.40;68.70;;;;;;5025973;28;20045;-22
2021/11/21 09:41:13;;;;;;;2.22;1.20;;;18.30;68.90;;;;;;5041181;28;20052;-25
2021/11/21 09:43:41;;;;;;;1.92;1.33;;;18.30;69.00;;;;;;5040353;28;20053;-28
2021/11/21 09:46:09;;;;;;;3.13;1.08;;;18.30;68.60;;;;;;5035808;28;20095;-25
2021/11/21 09:48:34;;;;;;;3.78;1.20;;;18.40;68.20;;;;;;5016899;28;20057;-26
2021/11/21 09:51:00;;;;;;;1.33;0.98;;;18.40;68.00;;;;;;5010284;28;21177;-25
2021/11/21 09:53:26;;;;;;;1.58;1.42;;;18.40;68.20;;;;;;5026629;28;20049;-23
2021/11/21 09:55:52;;;;;;;1.60;1.25;;;18.40;68.10;;;;;;5039248;28;20182;-20
2021/11/21 09:58:17;;;;;;;5.18;1.10;;;18.40;68.40;;;;;;5028316;28;20053;-22
2021/11/21 10:00:43;;;;;;;2.67;1.05;;;18.50;68.90;;;;;;5046789;28;20104;-31
2021/11/21 10:03:13;;;;;;;1.55;1.33;;;18.50;68.80;;;;;;5025964;28;20723;-23
2021/11/21 10:05:44;;;;;;;1.52;1.30;;;18.60;69.00;;;;;;5004418;28;20038;-26
2021/11/21 10:08:14;;;;;;;2.55;0.88;;;18.60;69.10;;;;;;5002493;28;20541;-23
2021/11/21 10:10:50;;;;;;;1.25;1.17;;;18.60;69.20;;;;;;4997647;28;20107;-21
2021/11/21 10:13:22;;;;;;;0.90;0.90;;;18.60;69.40;;;;;;5015779;28;20590;-24
2021/11/21 10:15:47;;;;;;;2.05;1.20;;;18.60;69.50;;;;;;5020177;28;20513;-24
2021/11/21 10:18:13;;;;;;;2.20;1.05;;;18.60;69.20;;;;;;5006834;28;20068;-27
2021/11/21 10:20:40;;;;;;;6.57;1.80;;;18.60;70.30;;;;;;5024440;28;20115;-24
2021/11/21 10:23:07;;;;;;;4.30;1.50;;;18.60;70.70;;;;;;5026802;28;20617;-29
2021/11/21 10:25:33;;;;;;;1.85;1.40;;;18.60;71.10;;;;;;5013114;28;20050;-27
2021/11/21 10:28:28;;;;;;;2.90;1.20;;;18.60;71.10;;;;;;5005107;28;20041;-27
2021/11/21 10:30:58;;;;;;;2.80;1.50;;;18.70;71.50;;;;;;5017200;28;20038;-28
2021/11/21 10:33:28;;;;;;;3.33;1.88;;;18.70;71.20;;;;;;5007801;28;20054;-26
2021/11/21 10:36:01;;;;;;;1.33;1.30;;;18.70;71.30;;;;;;5022356;28;20041;-27
2021/11/21 10:38:40;;;;;;;2.20;1.60;;;18.70;71.30;;;;;;5014498;28;20147;-26
2021/11/21 10:41:07;;;;;;;2.95;1.70;;;18.70;71.90;;;;;;5004781;28;20039;-26
2021/11/21 10:43:40;;;;;;;2.35;1.50;;;18.70;71.90;;;;;;5023375;28;20049;-26
2021/11/21 10:46:05;;;;;;;1.73;1.52;;;18.70;71.70;;;;;;5024019;28;20062;-25
2021/11/21 10:48:31;;;;;;;1.58;1.48;;;18.70;71.50;;;;;;5038360;28;20060;-26
2021/11/21 10:50:57;;;;;;;1.60;1.50;;;18.70;71.90;;;;;;5019130;28;20045;-23
2021/11/21 10:53:23;;;;;;;4.18;1.70;;;18.70;71.40;;;;;;5005010;28;20057;-21
2021/11/21 10:56:08;;;;;;;1.65;1.30;;;18.80;71.70;;;;;;5007452;28;20042;-25
2021/11/21 10:58:49;;;;;;;1.70;1.60;;;18.70;71.90;;;;;;5024702;28;20049;-25
2021/11/21 11:01:33;;;;;;;3.90;2.08;;;18.70;71.80;;;;;;5024062;28;20058;-28
2021/11/21 11:04:17;;;;;;;2.10;1.48;;;18.60;71.20;;;;;;5012440;28;20046;-23
2021/11/21 11:06:43;;;;;;;1.58;1.38;;;18.60;71.10;;;;;;5014648;28;20118;-25
2021/11/21 11:09:18;;;;;;;2.42;1.55;;;18.60;71.00;;;;;;5016588;28;21851;-22
2021/11/21 11:11:44;;;;;;;2.85;1.40;;;18.60;70.60;;;;;;5012987;28;20084;-25
2021/11/21 11:14:10;;;;;;;1.80;1.60;;;18.60;70.40;;;;;;5021560;28;20077;-26
2021/11/21 11:16:36;;;;;;;1.25;1.20;;;18.60;70.20;;;;;;5027217;28;20116;-23
2021/11/21 11:19:01;;;;;;;2.58;1.38;;;18.60;70.00;;;;;;5028434;28;20057;-26
2021/11/21 11:21:28;;;;;;;1.42;1.33;;;18.60;69.70;;;;;;5043187;28;20045;-22
2021/11/21 11:23:53;;;;;;;1.25;1.17;;;18.60;69.50;;;;;;5021383;28;20053;-28
2021/11/21 11:26:19;;;;;;;1.30;1.20;;;18.60;69.50;;;;;;5032663;28;20060;-29
2021/11/21 11:28:47;;;;;;;2.38;1.23;;;18.60;69.20;;;;;;5017812;28;20900;-21
2021/11/21 11:31:26;;;;;;;1.23;0.98;;;18.60;69.10;;;;;;5030110;28;20136;-24
2021/11/21 11:33:54;;;;;;;1.08;0.95;;;18.60;68.80;;;;;;5026413;28;20102;-27
2021/11/21 11:36:31;;;;;;;1.23;1.13;;;18.60;68.50;;;;;;5025281;28;20057;-26
2021/11/21 11:39:03;;;;;;;3.63;1.40;;;18.60;68.20;;;;;;5027136;28;20041;-26
2021/11/21 11:41:29;;;;;;;1.90;1.38;;;18.60;68.20;;;;;;5027757;28;20503;-30
2021/11/21 11:43:56;;;;;;;1.08;1.00;;;18.60;67.80;;;;;;5026455;28;20102;-25
2021/11/21 11:46:29;;;;;;;1.15;1.02;;;18.60;67.40;;;;;;5028092;28;20534;-29
2021/11/21 11:48:56;;;;;;;1.08;0.98;;;18.60;67.50;;;;;;5042710;28;20076;-23
2021/11/21 11:51:28;;;;;;;0.88;0.88;;;18.60;67.60;;;;;;5027987;28;20072;-28
2021/11/21 11:53:57;;;;;;;1.00;1.00;;;18.60;67.00;;;;;;5028665;28;20662;-26
2021/11/21 11:56:28;;;;;;;2.33;0.85;;;18.70;67.50;;;;;;5029114;28;20049;-27
2021/11/21 11:59:04;;;;;;;0.90;0.90;;;18.70;67.30;;;;;;5029019;28;20049;-24
2021/11/21 12:01:39;;;;;;;1.00;0.90;;;18.80;66.30;;;;;;5014513;28;20053;-24
2021/11/21 12:04:09;;;;;;;1.60;1.50;;;18.80;66.70;;;;;;5027683;28;20053;-22
2021/11/21 12:06:52;;;;;;;1.98;1.17;;;18.80;66.40;;;;;;5015588;28;20057;-24
2021/11/21 12:09:25;;;;;;;0.88;0.88;;;18.80;66.60;;;;;;5024858;28;20073;-25
2021/11/21 12:11:58;;;;;;;2.35;0.80;;;18.80;66.30;;;;;;5024096;28;20064;-24
2021/11/21 12:14:35;;;;;;;1.20;0.98;;;18.80;66.20;;;;;;5015970;28;20049;-26
2021/11/21 12:17:04;;;;;;;1.30;1.15;;;18.80;65.80;;;;;;5028374;28;20057;-31
2021/11/21 12:19:46;;;;;;;0.88;0.60;;;18.80;65.70;;;;;;5028569;28;20049;-28
2021/11/21 12:22:32;;;;;;;2.58;0.90;;;18.80;65.50;;;;;;5030134;28;20111;-25
2021/11/21 12:25:30;;;;;;;2.50;0.80;;;18.80;65.50;;;;;;5025401;28;20049;-26
2021/11/21 12:27:59;;;;;;;1.20;0.80;;;18.90;65.30;;;;;;5015904;28;20114;-22
2021/11/21 12:30:29;;;;;;;0.82;0.75;;;18.80;65.40;;;;;;5034731;28;20053;-27
2021/11/21 12:33:02;;;;;;;1.30;0.63;;;18.80;65.80;;;;;;5030264;28;20642;-22
2021/11/21 12:35:30;;;;;;;1.40;0.80;;;18.80;65.20;;;;;;5038150;28;20048;-30
2021/11/21 12:37:57;;;;;;;0.60;0.60;;;18.80;65.10;;;;;;5027856;28;20037;-24
2021/11/21 12:40:35;;;;;;;0.80;0.80;;;18.80;64.90;;;;;;5027236;28;20751;-29
2021/11/21 12:43:06;;;;;;;4.20;3.58;;;18.80;64.70;;;;;;5006354;28;20101;-23
2021/11/21 12:45:34;;;;;;;5.97;5.30;;;18.80;65.30;;;;;;5005849;28;20049;-27